sensor_id;sensor_type;location;lat;lon;timestamp;pressure;altitude;pressure_sealevel;temperature;humidity
36598;BME280;22607;49.550;11.940;2023-05-07T00:02:07;96931.03;;;13.83;95.08
36598;BME280;22607;49.550;11.940;2023-05-07T00:04:33;96926.41;;;13.85;95.49
36598;BME280;22607;49.550;11.940;2023-05-07T00:07:04;96935.72;;;13.81;99.27
36598;BME280;22607;49.550;11.940;2023-05-07T00:09:40;96931.63;;;13.78;98.65
36598;BME280;22607;49.550;11.940;2023-05-07T00:12:07;96926.13;;;13.73;98.76
36598;BME280;22607;49.550;11.940;2023-05-07T00:14:33;96920.97;;;13.65;98.38
36598;BME280;22607;49.550;11.940;2023-05-07T00:17:00;96927.09;;;13.72;98.28
36598;BME280;22607;49.550;11.940;2023-05-07T00:19:40;96920.38;;;13.70;100.00
36598;BME280;22607;49.550;11.940;2023-05-07T00:22:07;96920.66;;;13.53;100.00
36598;BME280;22607;49.550;11.940;2023-05-07T00:24:34;96924.91;;;13.54;100.00
36598;BME280;22607;49.550;11.940;2023-05-07T00:27:00;96930.81;;;13.56;100.00
36598;BME280;22607;49.550;11.940;2023-05-07T00:29:27;96926.84;;;13.45;100.00
36598;BME280;22607;49.550;11.940;2023-05-07T00:31:55;96926.38;;;13.42;100.00
36598;BME280;22607;49.550;11.940;2023-05-07T00:34:22;96916.84;;;13.41;100.00
36598;BME280;22607;49.550;11.940;2023-05-07T00:36:48;96927.91;;;13.51;100.00
36598;BME280;22607;49.550;11.940;2023-05-07T00:39:21;96933.69;;;13.39;100.00
36598;BME280;22607;49.550;11.940;2023-05-07T00:41:47;96928.44;;;13.24;100.00
36598;BME280;22607;49.550;11.940;2023-05-07T00:44:18;96926.91;;;13.30;100.00
36598;BME280;22607;49.550;11.940;2023-05-07T00:46:44;96932.94;;;13.24;100.00
36598;BME280;22607;49.550;11.940;2023-05-07T00:49:12;96932.94;;;13.24;100.00
36598;BME280;22607;49.550;11.940;2023-05-07T00:51:39;96926.00;;;13.23;100.00
36598;BME280;22607;49.550;11.940;2023-05-07T00:54:05;96931.44;;;13.21;100.00
36598;BME280;22607;49.550;11.940;2023-05-07T00:56:32;96927.56;;;13.17;100.00
36598;BME280;22607;49.550;11.940;2023-05-07T00:59:07;96927.13;;;13.13;100.00
36598;BME280;22607;49.550;11.940;2023-05-07T01:01:34;96926.78;;;13.02;100.00
36598;BME280;22607;49.550;11.940;2023-05-07T01:04:01;96926.84;;;13.08;100.00
36598;BME280;22607;49.550;11.940;2023-05-07T01:06:29;96926.25;;;13.06;100.00
36598;BME280;22607;49.550;11.940;2023-05-07T01:08:57;96924.22;;;13.08;100.00
36598;BME280;22607;49.550;11.940;2023-05-07T01:11:24;96926.34;;;12.98;100.00
36598;BME280;22607;49.550;11.940;2023-05-07T01:13:57;96931.44;;;12.99;100.00
36598;BME280;22607;49.550;11.940;2023-05-07T01:16:25;96922.34;;;13.02;100.00
36598;BME280;22607;49.550;11.940;2023-05-07T01:18:53;96914.97;;;12.97;100.00
36598;BME280;22607;49.550;11.940;2023-05-07T01:21:25;96925.72;;;12.96;100.00
36598;BME280;22607;49.550;11.940;2023-05-07T01:23:54;96920.97;;;13.06;100.00
36598;BME280;22607;49.550;11.940;2023-05-07T01:26:21;96910.09;;;12.94;100.00
36598;BME280;22607;49.550;11.940;2023-05-07T01:28:48;96901.44;;;13.00;100.00
36598;BME280;22607;49.550;11.940;2023-05-07T01:31:16;96910.63;;;12.90;100.00
36598;BME280;22607;49.550;11.940;2023-05-07T01:33:43;96917.66;;;12.82;100.00
36598;BME280;22607;49.550;11.940;2023-05-07T01:36:11;96911.72;;;12.80;100.00
36598;BME280;22607;49.550;11.940;2023-05-07T01:38:41;96917.75;;;12.74;100.00
36598;BME280;22607;49.550;11.940;2023-05-07T01:41:08;96916.13;;;12.73;100.00
36598;BME280;22607;49.550;11.940;2023-05-07T01:43:35;96919.38;;;12.75;100.00
36598;BME280;22607;49.550;11.940;2023-05-07T01:46:02;96921.66;;;12.63;100.00
36598;BME280;22607;49.550;11.940;2023-05-07T01:48:30;96909.16;;;12.50;100.00
36598;BME280;22607;49.550;11.940;2023-05-07T01:50:57;96920.88;;;12.47;100.00
36598;BME280;22607;49.550;11.940;2023-05-07T01:53:27;96917.41;;;12.47;100.00
36598;BME280;22607;49.550;11.940;2023-05-07T01:55:53;96926.41;;;12.38;100.00
36598;BME280;22607;49.550;11.940;2023-05-07T01:58:20;96925.22;;;12.55;100.00
36598;BME280;22607;49.550;11.940;2023-05-07T02:00:57;96927.94;;;12.47;100.00
36598;BME280;22607;49.550;11.940;2023-05-07T02:03:23;96931.03;;;12.36;100.00
36598;BME280;22607;49.550;11.940;2023-05-07T02:05:50;96926.97;;;12.33;100.00
36598;BME280;22607;49.550;11.940;2023-05-07T02:08:17;96929.59;;;12.33;100.00
36598;BME280;22607;49.550;11.940;2023-05-07T02:10:44;96931.66;;;12.38;100.00
36598;BME280;22607;49.550;11.940;2023-05-07T02:13:10;96925.03;;;12.42;100.00
36598;BME280;22607;49.550;11.940;2023-05-07T02:15:37;96925.78;;;12.36;100.00
36598;BME280;22607;49.550;11.940;2023-05-07T02:18:05;96916.50;;;12.40;100.00
36598;BME280;22607;49.550;11.940;2023-05-07T02:20:38;96916.22;;;12.34;100.00
36598;BME280;22607;49.550;11.940;2023-05-07T02:23:05;96917.03;;;12.20;100.00
36598;BME280;22607;49.550;11.940;2023-05-07T02:25:32;96922.78;;;12.24;100.00
36598;BME280;22607;49.550;11.940;2023-05-07T02:27:59;96920.38;;;12.14;100.00
36598;BME280;22607;49.550;11.940;2023-05-07T02:30:25;96916.94;;;12.13;100.00
36598;BME280;22607;49.550;11.940;2023-05-07T02:33:03;96914.94;;;12.15;100.00
36598;BME280;22607;49.550;11.940;2023-05-07T02:35:30;96924.94;;;12.20;100.00
36598;BME280;22607;49.550;11.940;2023-05-07T02:37:56;96919.22;;;12.31;100.00
36598;BME280;22607;49.550;11.940;2023-05-07T02:40:23;96913.41;;;12.36;100.00
36598;BME280;22607;49.550;11.940;2023-05-07T02:42:49;96905.13;;;12.24;100.00
36598;BME280;22607;49.550;11.940;2023-05-07T02:45:16;96904.78;;;12.27;100.00
36598;BME280;22607;49.550;11.940;2023-05-07T02:47:42;96907.69;;;12.32;100.00
36598;BME280;22607;49.550;11.940;2023-05-07T02:50:15;96902.53;;;12.39;100.00
36598;BME280;22607;49.550;11.940;2023-05-07T02:52:41;96902.44;;;12.32;100.00
36598;BME280;22607;49.550;11.940;2023-05-07T02:55:08;96900.25;;;12.36;100.00
36598;BME280;22607;49.550;11.940;2023-05-07T02:57:35;96903.59;;;12.30;100.00
36598;BME280;22607;49.550;11.940;2023-05-07T03:00:18;96899.16;;;12.30;100.00
36598;BME280;22607;49.550;11.940;2023-05-07T03:02:45;96897.91;;;12.26;100.00
36598;BME280;22607;49.550;11.940;2023-05-07T03:05:12;96888.34;;;12.25;100.00
36598;BME280;22607;49.550;11.940;2023-05-07T03:07:38;96891.97;;;12.24;100.00
36598;BME280;22607;49.550;11.940;2023-05-07T03:10:06;96904.78;;;12.27;100.00
36598;BME280;22607;49.550;11.940;2023-05-07T03:12:32;96900.31;;;12.28;100.00
36598;BME280;22607;49.550;11.940;2023-05-07T03:14:59;96897.25;;;12.24;100.00
36598;BME280;22607;49.550;11.940;2023-05-07T03:17:25;96898.44;;;12.37;100.00
36598;BME280;22607;49.550;11.940;2023-05-07T03:19:52;96889.00;;;12.42;100.00
36598;BME280;22607;49.550;11.940;2023-05-07T03:22:19;96889.59;;;12.29;100.00
36598;BME280;22607;49.550;11.940;2023-05-07T03:24:49;96908.31;;;12.34;100.00
36598;BME280;22607;49.550;11.940;2023-05-07T03:27:16;96910.41;;;12.24;100.00
36598;BME280;22607;49.550;11.940;2023-05-07T03:29:50;96910.41;;;12.24;100.00
36598;BME280;22607;49.550;11.940;2023-05-07T03:32:17;96900.69;;;12.25;100.00
36598;BME280;22607;49.550;11.940;2023-05-07T03:34:43;96907.22;;;12.14;100.00
36598;BME280;22607;49.550;11.940;2023-05-07T03:37:10;96908.16;;;12.21;100.00
36598;BME280;22607;49.550;11.940;2023-05-07T03:39:37;96905.22;;;12.16;100.00
36598;BME280;22607;49.550;11.940;2023-05-07T03:42:04;96909.59;;;12.08;100.00
36598;BME280;22607;49.550;11.940;2023-05-07T03:44:33;96917.69;;;11.99;100.00
36598;BME280;22607;49.550;11.940;2023-05-07T03:47:03;96906.72;;;11.95;100.00
36598;BME280;22607;49.550;11.940;2023-05-07T03:49:30;96896.25;;;11.87;100.00
36598;BME280;22607;49.550;11.940;2023-05-07T03:52:02;96902.91;;;11.98;100.00
36598;BME280;22607;49.550;11.940;2023-05-07T03:54:29;96919.13;;;12.10;100.00
36598;BME280;22607;49.550;11.940;2023-05-07T03:56:56;96903.38;;;12.01;100.00
36598;BME280;22607;49.550;11.940;2023-05-07T03:59:23;96908.94;;;12.06;100.00
36598;BME280;22607;49.550;11.940;2023-05-07T04:01:49;96912.56;;;12.05;100.00
36598;BME280;22607;49.550;11.940;2023-05-07T04:04:16;96908.06;;;12.14;100.00
36598;BME280;22607;49.550;11.940;2023-05-07T04:06:43;96917.03;;;12.20;100.00
36598;BME280;22607;49.550;11.940;2023-05-07T04:09:09;96912.25;;;12.24;100.00
36598;BME280;22607;49.550;11.940;2023-05-07T04:11:36;96925.19;;;12.25;100.00
36598;BME280;22607;49.550;11.940;2023-05-07T04:14:03;96919.59;;;12.28;100.00
36598;BME280;22607;49.550;11.940;2023-05-07T04:16:31;96921.78;;;12.40;100.00
36598;BME280;22607;49.550;11.940;2023-05-07T04:18:58;96921.13;;;12.38;100.00
36598;BME280;22607;49.550;11.940;2023-05-07T04:21:24;96921.69;;;12.33;100.00
36598;BME280;22607;49.550;11.940;2023-05-07T04:23:52;96918.13;;;12.41;100.00
36598;BME280;22607;49.550;11.940;2023-05-07T04:26:18;96916.50;;;12.40;100.00
36598;BME280;22607;49.550;11.940;2023-05-07T04:28:45;96907.59;;;12.41;100.00
36598;BME280;22607;49.550;11.940;2023-05-07T04:31:11;96921.22;;;12.59;100.00
36598;BME280;22607;49.550;11.940;2023-05-07T04:33:38;96914.69;;;12.55;100.00
36598;BME280;22607;49.550;11.940;2023-05-07T04:36:04;96922.09;;;12.67;100.00
36598;BME280;22607;49.550;11.940;2023-05-07T04:38:33;96940.72;;;12.95;100.00
36598;BME280;22607;49.550;11.940;2023-05-07T04:41:04;96935.75;;;13.22;100.00
36598;BME280;22607;49.550;11.940;2023-05-07T04:43:31;96942.84;;;13.44;100.00
36598;BME280;22607;49.550;11.940;2023-05-07T04:45:58;96942.84;;;13.44;100.00
36598;BME280;22607;49.550;11.940;2023-05-07T04:48:25;96940.81;;;13.61;100.00
36598;BME280;22607;49.550;11.940;2023-05-07T04:50:52;96947.09;;;13.60;100.00
36598;BME280;22607;49.550;11.940;2023-05-07T04:53:19;96956.47;;;13.62;100.00
36598;BME280;22607;49.550;11.940;2023-05-07T04:55:46;96954.00;;;13.61;100.00
36598;BME280;22607;49.550;11.940;2023-05-07T04:58:15;96963.97;;;13.65;100.00
36598;BME280;22607;49.550;11.940;2023-05-07T05:00:41;96967.50;;;13.73;100.00
36598;BME280;22607;49.550;11.940;2023-05-07T05:03:15;96976.63;;;13.70;100.00
36598;BME280;22607;49.550;11.940;2023-05-07T05:05:42;96978.69;;;13.97;100.00
36598;BME280;22607;49.550;11.940;2023-05-07T05:08:08;96975.47;;;14.59;96.45
36598;BME280;22607;49.550;11.940;2023-05-07T05:10:35;96972.50;;;15.17;91.78
36598;BME280;22607;49.550;11.940;2023-05-07T05:13:01;96981.13;;;15.46;89.18
36598;BME280;22607;49.550;11.940;2023-05-07T05:15:30;96977.53;;;15.74;86.16
36598;BME280;22607;49.550;11.940;2023-05-07T05:17:59;96979.22;;;16.03;80.00
36598;BME280;22607;49.550;11.940;2023-05-07T05:20:25;96977.59;;;16.01;79.23
36598;BME280;22607;49.550;11.940;2023-05-07T05:22:52;96981.47;;;15.99;78.57
36598;BME280;22607;49.550;11.940;2023-05-07T05:25:19;96990.59;;;15.90;80.30
36598;BME280;22607;49.550;11.940;2023-05-07T05:27:45;96995.28;;;16.48;77.52
36598;BME280;22607;49.550;11.940;2023-05-07T05:30:12;96981.97;;;16.82;72.85
36598;BME280;22607;49.550;11.940;2023-05-07T05:32:39;96987.34;;;16.48;73.62
36598;BME280;22607;49.550;11.940;2023-05-07T05:35:06;96983.47;;;16.24;75.78
36598;BME280;22607;49.550;11.940;2023-05-07T05:37:33;96992.44;;;16.43;74.53
36598;BME280;22607;49.550;11.940;2023-05-07T05:40:00;96984.31;;;16.24;75.90
36598;BME280;22607;49.550;11.940;2023-05-07T05:42:30;96981.19;;;16.61;73.58
36598;BME280;22607;49.550;11.940;2023-05-07T05:44:56;96977.28;;;16.71;70.44
36598;BME280;22607;49.550;11.940;2023-05-07T05:47:23;96980.41;;;16.47;73.41
36598;BME280;22607;49.550;11.940;2023-05-07T05:49:49;96981.00;;;16.63;71.85
36598;BME280;22607;49.550;11.940;2023-05-07T05:52:16;96983.03;;;16.61;71.96
36598;BME280;22607;49.550;11.940;2023-05-07T05:54:43;96976.69;;;16.75;71.58
36598;BME280;22607;49.550;11.940;2023-05-07T05:57:09;96981.78;;;16.77;71.01
36598;BME280;22607;49.550;11.940;2023-05-07T05:59:37;96979.97;;;16.50;72.51
36598;BME280;22607;49.550;11.940;2023-05-07T06:02:03;96975.47;;;16.64;72.27
36598;BME280;22607;49.550;11.940;2023-05-07T06:04:32;96979.91;;;16.84;70.96
36598;BME280;22607;49.550;11.940;2023-05-07T06:06:58;96980.19;;;16.56;71.01
36598;BME280;22607;49.550;11.940;2023-05-07T06:09:25;96988.16;;;16.56;72.16
36598;BME280;22607;49.550;11.940;2023-05-07T06:11:52;96980.41;;;16.47;72.18
36598;BME280;22607;49.550;11.940;2023-05-07T06:14:24;96978.16;;;16.58;73.51
36598;BME280;22607;49.550;11.940;2023-05-07T06:16:51;96973.78;;;16.90;70.38
36598;BME280;22607;49.550;11.940;2023-05-07T06:19:18;96983.94;;;17.00;69.85
36598;BME280;22607;49.550;11.940;2023-05-07T06:21:49;96994.56;;;17.00;68.74
36598;BME280;22607;49.550;11.940;2023-05-07T06:24:21;96993.28;;;17.23;69.07
36598;BME280;22607;49.550;11.940;2023-05-07T06:26:47;97007.66;;;16.88;68.32
36598;BME280;22607;49.550;11.940;2023-05-07T06:29:15;97007.91;;;17.39;66.93
36598;BME280;22607;49.550;11.940;2023-05-07T06:31:42;97002.31;;;17.54;66.54
36598;BME280;22607;49.550;11.940;2023-05-07T06:34:09;97002.28;;;17.61;64.96
36598;BME280;22607;49.550;11.940;2023-05-07T06:36:36;96991.09;;;17.84;65.31
36598;BME280;22607;49.550;11.940;2023-05-07T06:39:02;96995.34;;;18.18;63.66
36598;BME280;22607;49.550;11.940;2023-05-07T06:41:29;96993.06;;;17.96;64.23
36598;BME280;22607;49.550;11.940;2023-05-07T06:43:55;96995.19;;;17.80;65.25
36598;BME280;22607;49.550;11.940;2023-05-07T06:46:22;97003.75;;;17.50;65.71
36598;BME280;22607;49.550;11.940;2023-05-07T06:48:48;97002.91;;;18.21;63.95
36598;BME280;22607;49.550;11.940;2023-05-07T06:51:15;96999.88;;;18.43;63.02
36598;BME280;22607;49.550;11.940;2023-05-07T06:53:43;97004.03;;;18.76;60.47
36598;BME280;22607;49.550;11.940;2023-05-07T06:56:10;97006.16;;;18.67;61.08
36598;BME280;22607;49.550;11.940;2023-05-07T06:58:45;97008.81;;;18.67;61.38
36598;BME280;22607;49.550;11.940;2023-05-07T07:01:11;96991.47;;;19.02;60.59
36598;BME280;22607;49.550;11.940;2023-05-07T07:03:40;97005.88;;;18.94;60.43
36598;BME280;22607;49.550;11.940;2023-05-07T07:06:06;97001.59;;;18.30;62.39
36598;BME280;22607;49.550;11.940;2023-05-07T07:08:34;97009.66;;;18.86;59.58
36598;BME280;22607;49.550;11.940;2023-05-07T07:11:00;97013.97;;;19.25;59.25
36598;BME280;22607;49.550;11.940;2023-05-07T07:13:33;97010.34;;;19.68;59.26
36598;BME280;22607;49.550;11.940;2023-05-07T07:16:00;97014.75;;;19.75;58.41
36598;BME280;22607;49.550;11.940;2023-05-07T07:18:27;97012.41;;;19.66;58.34
36598;BME280;22607;49.550;11.940;2023-05-07T07:20:53;97015.78;;;20.04;58.02
36598;BME280;22607;49.550;11.940;2023-05-07T07:23:20;97012.22;;;20.35;56.81
36598;BME280;22607;49.550;11.940;2023-05-07T07:25:48;97005.78;;;20.00;56.34
36598;BME280;22607;49.550;11.940;2023-05-07T07:28:15;97010.13;;;20.13;55.31
36598;BME280;22607;49.550;11.940;2023-05-07T07:30:50;97012.78;;;20.13;56.18
36598;BME280;22607;49.550;11.940;2023-05-07T07:33:17;97004.91;;;20.06;55.72
36598;BME280;22607;49.550;11.940;2023-05-07T07:35:43;97006.88;;;20.23;55.96
36598;BME280;22607;49.550;11.940;2023-05-07T07:38:10;96995.50;;;19.73;57.96
36598;BME280;22607;49.550;11.940;2023-05-07T07:40:36;97001.53;;;19.37;58.53
36598;BME280;22607;49.550;11.940;2023-05-07T07:43:03;97003.66;;;19.78;58.20
36598;BME280;22607;49.550;11.940;2023-05-07T07:45:36;96992.06;;;19.84;56.75
36598;BME280;22607;49.550;11.940;2023-05-07T07:48:03;97006.75;;;20.17;56.35
36598;BME280;22607;49.550;11.940;2023-05-07T07:50:32;97000.41;;;20.66;55.10
36598;BME280;22607;49.550;11.940;2023-05-07T07:53:10;97006.78;;;20.65;54.25
36598;BME280;22607;49.550;11.940;2023-05-07T07:55:40;96999.00;;;20.40;56.24
36598;BME280;22607;49.550;11.940;2023-05-07T07:58:09;97011.78;;;20.38;56.04
36598;BME280;22607;49.550;11.940;2023-05-07T08:00:36;97016.25;;;20.13;55.40
36598;BME280;22607;49.550;11.940;2023-05-07T08:03:02;97009.19;;;20.07;56.13
36598;BME280;22607;49.550;11.940;2023-05-07T08:05:29;97021.59;;;20.13;57.55
36598;BME280;22607;49.550;11.940;2023-05-07T08:07:56;97021.75;;;20.66;55.37
36598;BME280;22607;49.550;11.940;2023-05-07T08:10:23;97024.53;;;20.59;55.71
36598;BME280;22607;49.550;11.940;2023-05-07T08:12:50;97021.28;;;20.69;54.27
36598;BME280;22607;49.550;11.940;2023-05-07T08:15:17;97014.91;;;20.46;55.11
36598;BME280;22607;49.550;11.940;2023-05-07T08:17:44;97020.91;;;20.18;56.12
36598;BME280;22607;49.550;11.940;2023-05-07T08:20:11;97017.31;;;20.12;56.00
36598;BME280;22607;49.550;11.940;2023-05-07T08:22:43;97020.53;;;20.14;54.91
36598;BME280;22607;49.550;11.940;2023-05-07T08:25:12;97012.31;;;20.04;55.59
36598;BME280;22607;49.550;11.940;2023-05-07T08:27:38;97019.75;;;20.26;56.46
36598;BME280;22607;49.550;11.940;2023-05-07T08:30:06;97007.94;;;20.93;54.79
36598;BME280;22607;49.550;11.940;2023-05-07T08:32:32;97012.34;;;21.00;53.77
36598;BME280;22607;49.550;11.940;2023-05-07T08:34:59;97008.50;;;20.83;53.81
36598;BME280;22607;49.550;11.940;2023-05-07T08:37:27;97004.50;;;21.22;53.12
36598;BME280;22607;49.550;11.940;2023-05-07T08:39:53;97015.59;;;20.78;53.61
36598;BME280;22607;49.550;11.940;2023-05-07T08:42:23;97011.19;;;20.48;54.70
36598;BME280;22607;49.550;11.940;2023-05-07T08:44:51;97005.72;;;20.54;54.31
36598;BME280;22607;49.550;11.940;2023-05-07T08:47:29;97005.16;;;20.40;54.17
36598;BME280;22607;49.550;11.940;2023-05-07T08:49:56;97006.25;;;19.97;54.41
36598;BME280;22607;49.550;11.940;2023-05-07T08:52:23;97006.44;;;19.83;55.68
36598;BME280;22607;49.550;11.940;2023-05-07T08:54:49;97005.16;;;20.16;55.26
36598;BME280;22607;49.550;11.940;2023-05-07T08:57:16;97013.81;;;20.12;55.86
36598;BME280;22607;49.550;11.940;2023-05-07T08:59:42;97011.16;;;19.81;55.33
36598;BME280;22607;49.550;11.940;2023-05-07T09:02:10;97011.06;;;19.88;56.90
36598;BME280;22607;49.550;11.940;2023-05-07T09:04:37;97009.41;;;20.05;55.92
36598;BME280;22607;49.550;11.940;2023-05-07T09:07:04;97011.41;;;20.10;55.53
36598;BME280;22607;49.550;11.940;2023-05-07T09:09:34;97003.31;;;20.29;56.96
36598;BME280;22607;49.550;11.940;2023-05-07T09:12:01;97007.59;;;20.90;54.06
36598;BME280;22607;49.550;11.940;2023-05-07T09:14:31;97008.81;;;21.11;53.18
36598;BME280;22607;49.550;11.940;2023-05-07T09:17:03;97002.25;;;21.31;53.88
36598;BME280;22607;49.550;11.940;2023-05-07T09:19:30;97000.56;;;21.83;50.29
36598;BME280;22607;49.550;11.940;2023-05-07T09:21:58;97004.09;;;21.42;51.00
36598;BME280;22607;49.550;11.940;2023-05-07T09:24:26;96994.97;;;22.01;51.26
36598;BME280;22607;49.550;11.940;2023-05-07T09:27:01;96994.75;;;21.57;50.64
36598;BME280;22607;49.550;11.940;2023-05-07T09:29:43;96991.56;;;21.31;51.57
36598;BME280;22607;49.550;11.940;2023-05-07T09:32:10;96990.50;;;21.44;52.27
36598;BME280;22607;49.550;11.940;2023-05-07T09:34:37;97004.47;;;20.81;52.62
36598;BME280;22607;49.550;11.940;2023-05-07T09:37:05;97012.19;;;21.47;53.45
36598;BME280;22607;49.550;11.940;2023-05-07T09:39:45;97005.34;;;21.81;50.56
36598;BME280;22607;49.550;11.940;2023-05-07T09:42:13;96999.53;;;21.84;52.04
36598;BME280;22607;49.550;11.940;2023-05-07T09:44:43;97011.53;;;22.15;52.40
36598;BME280;22607;49.550;11.940;2023-05-07T09:47:10;97001.63;;;22.50;50.74
36598;BME280;22607;49.550;11.940;2023-05-07T09:49:39;96986.53;;;21.75;51.45
36598;BME280;22607;49.550;11.940;2023-05-07T09:52:06;96988.59;;;22.02;51.28
36598;BME280;22607;49.550;11.940;2023-05-07T09:54:35;96994.03;;;22.08;51.08
36598;BME280;22607;49.550;11.940;2023-05-07T09:57:05;96987.53;;;21.86;50.49
36598;BME280;22607;49.550;11.940;2023-05-07T09:59:34;96996.25;;;21.53;51.97
36598;BME280;22607;49.550;11.940;2023-05-07T10:02:03;97005.59;;;21.67;52.19
36598;BME280;22607;49.550;11.940;2023-05-07T10:04:31;96999.22;;;21.39;52.82
36598;BME280;22607;49.550;11.940;2023-05-07T10:06:59;96998.41;;;21.97;51.39
36598;BME280;22607;49.550;11.940;2023-05-07T10:09:26;96996.53;;;22.14;49.61
36598;BME280;22607;49.550;11.940;2023-05-07T10:11:59;96993.38;;;22.00;50.56
36598;BME280;22607;49.550;11.940;2023-05-07T10:14:27;96997.66;;;22.01;51.62
36598;BME280;22607;49.550;11.940;2023-05-07T10:16:55;97003.59;;;22.21;50.14
36598;BME280;22607;49.550;11.940;2023-05-07T10:19:22;96983.28;;;22.76;49.31
36598;BME280;22607;49.550;11.940;2023-05-07T10:21:59;96993.38;;;22.91;48.28
36598;BME280;22607;49.550;11.940;2023-05-07T10:24:35;96989.75;;;23.25;48.90
36598;BME280;22607;49.550;11.940;2023-05-07T10:27:12;96990.38;;;23.32;48.36
36598;BME280;22607;49.550;11.940;2023-05-07T10:32:33;96997.88;;;23.08;49.30
36598;BME280;22607;49.550;11.940;2023-05-07T10:35:06;96987.94;;;22.64;48.59
36598;BME280;22607;49.550;11.940;2023-05-07T10:37:33;96994.00;;;23.21;50.14
36598;BME280;22607;49.550;11.940;2023-05-07T10:40:01;96981.28;;;22.89;48.28
36598;BME280;22607;49.550;11.940;2023-05-07T10:42:27;96981.59;;;23.15;47.15
36598;BME280;22607;49.550;11.940;2023-05-07T10:44:54;96974.13;;;23.17;48.62
36598;BME280;22607;49.550;11.940;2023-05-07T10:47:21;96973.41;;;22.60;49.08
36598;BME280;22607;49.550;11.940;2023-05-07T10:52:21;96972.94;;;22.63;48.33
36598;BME280;22607;49.550;11.940;2023-05-07T10:57:44;96974.06;;;22.33;48.73
36598;BME280;22607;49.550;11.940;2023-05-07T11:05:28;96971.53;;;23.27;48.74
36598;BME280;22607;49.550;11.940;2023-05-07T11:08:02;96957.41;;;23.32;47.22
36598;BME280;22607;49.550;11.940;2023-05-07T11:10:56;96978.06;;;22.87;48.05
36598;BME280;22607;49.550;11.940;2023-05-07T11:13:44;96976.34;;;22.80;47.32
36598;BME280;22607;49.550;11.940;2023-05-07T11:16:23;96964.50;;;23.43;47.03
36598;BME280;22607;49.550;11.940;2023-05-07T11:18:53;96973.31;;;23.39;47.49
36598;BME280;22607;49.550;11.940;2023-05-07T11:21:40;96969.31;;;23.41;46.19
36598;BME280;22607;49.550;11.940;2023-05-07T11:24:09;96957.38;;;23.04;46.12
36598;BME280;22607;49.550;11.940;2023-05-07T11:29:21;96965.84;;;22.96;49.15
36598;BME280;22607;49.550;11.940;2023-05-07T11:31:54;96967.06;;;22.66;47.00
36598;BME280;22607;49.550;11.940;2023-05-07T11:34:26;96968.19;;;22.92;48.42
36598;BME280;22607;49.550;11.940;2023-05-07T11:36:55;96965.78;;;22.91;46.69
36598;BME280;22607;49.550;11.940;2023-05-07T11:41:55;96968.00;;;22.99;48.44
36598;BME280;22607;49.550;11.940;2023-05-07T11:44:22;96960.72;;;23.17;49.29
36598;BME280;22607;49.550;11.940;2023-05-07T11:46:48;96971.31;;;23.06;48.72
36598;BME280;22607;49.550;11.940;2023-05-07T11:49:20;96967.25;;;23.26;45.28
36598;BME280;22607;49.550;11.940;2023-05-07T11:51:47;96973.25;;;23.11;47.46
36598;BME280;22607;49.550;11.940;2023-05-07T11:54:17;96964.41;;;22.66;45.78
36598;BME280;22607;49.550;11.940;2023-05-07T11:56:44;96968.50;;;22.74;47.16
36598;BME280;22607;49.550;11.940;2023-05-07T11:59:11;96963.97;;;22.74;46.44
36598;BME280;22607;49.550;11.940;2023-05-07T12:01:37;96963.28;;;23.06;47.13
36598;BME280;22607;49.550;11.940;2023-05-07T12:04:04;96961.94;;;23.04;47.30
36598;BME280;22607;49.550;11.940;2023-05-07T12:06:36;96956.28;;;23.00;46.74
36598;BME280;22607;49.550;11.940;2023-05-07T12:09:09;96945.34;;;23.29;46.70
36598;BME280;22607;49.550;11.940;2023-05-07T12:11:45;96955.09;;;23.41;45.40
36598;BME280;22607;49.550;11.940;2023-05-07T12:14:12;96957.84;;;23.24;46.27
36598;BME280;22607;49.550;11.940;2023-05-07T12:16:40;96964.41;;;23.33;45.45
36598;BME280;22607;49.550;11.940;2023-05-07T12:19:07;96960.56;;;22.79;46.14
36598;BME280;22607;49.550;11.940;2023-05-07T12:21:42;96956.53;;;23.26;45.44
36598;BME280;22607;49.550;11.940;2023-05-07T12:24:08;96961.63;;;23.50;44.89
36598;BME280;22607;49.550;11.940;2023-05-07T12:26:41;96976.69;;;23.06;44.05
36598;BME280;22607;49.550;11.940;2023-05-07T12:29:07;96963.53;;;23.05;45.21
36598;BME280;22607;49.550;11.940;2023-05-07T12:31:35;96950.53;;;23.14;43.99
36598;BME280;22607;49.550;11.940;2023-05-07T12:34:02;96950.84;;;23.17;44.10
36598;BME280;22607;49.550;11.940;2023-05-07T12:36:37;96954.97;;;23.30;45.00
36598;BME280;22607;49.550;11.940;2023-05-07T12:39:05;96940.41;;;23.21;43.47
36598;BME280;22607;49.550;11.940;2023-05-07T12:42:01;96949.56;;;23.25;43.84
36598;BME280;22607;49.550;11.940;2023-05-07T12:44:32;96950.53;;;23.14;43.17
36598;BME280;22607;49.550;11.940;2023-05-07T12:47:01;96944.38;;;22.91;42.71
36598;BME280;22607;49.550;11.940;2023-05-07T12:49:29;96942.84;;;22.78;44.41
36598;BME280;22607;49.550;11.940;2023-05-07T12:51:56;96938.91;;;23.30;42.19
36598;BME280;22607;49.550;11.940;2023-05-07T12:54:41;96936.78;;;22.83;43.33
36598;BME280;22607;49.550;11.940;2023-05-07T12:57:09;96943.84;;;22.94;43.45
36598;BME280;22607;49.550;11.940;2023-05-07T12:59:40;96948.56;;;23.54;42.52
36598;BME280;22607;49.550;11.940;2023-05-07T13:02:07;96936.09;;;23.42;41.82
36598;BME280;22607;49.550;11.940;2023-05-07T13:04:35;96936.81;;;23.32;42.63
36598;BME280;22607;49.550;11.940;2023-05-07T13:07:02;96930.94;;;23.36;43.05
36598;BME280;22607;49.550;11.940;2023-05-07T13:09:29;96925.38;;;23.42;41.71
36598;BME280;22607;49.550;11.940;2023-05-07T13:11:55;96921.53;;;23.33;42.86